sensor_id;sensor_type;location;lat;lon;timestamp;P1;durP1;ratioP1;P2;durP2;ratioP2
21733;SDS011;11029;47.820;10.534;2023-11-18T00:00:23;2.40;;;2.20;;
21733;SDS011;11029;47.820;10.534;2023-11-18T00:03:09;2.30;;;2.10;;
21733;SDS011;11029;47.820;10.534;2023-11-18T00:05:55;2.90;;;2.60;;
21733;SDS011;11029;47.820;10.534;2023-11-18T00:08:40;2.70;;;2.50;;
21733;SDS011;11029;47.820;10.534;2023-11-18T00:11:26;2.30;;;2.10;;
21733;SDS011;11029;47.820;10.534;2023-11-18T00:14:12;2.40;;;2.20;;
21733;SDS011;11029;47.820;10.534;2023-11-18T00:16:58;2.33;;;2.13;;
21733;SDS011;11029;47.820;10.534;2023-11-18T00:19:44;2.28;;;2.08;;
21733;SDS011;11029;47.820;10.534;2023-11-18T00:22:29;2.60;;;2.40;;
21733;SDS011;11029;47.820;10.534;2023-11-18T00:25:15;3.00;;;2.70;;
21733;SDS011;11029;47.820;10.534;2023-11-18T00:28:01;2.50;;;2.30;;
21733;SDS011;11029;47.820;10.534;2023-11-18T00:30:47;2.50;;;2.30;;
21733;SDS011;11029;47.820;10.534;2023-11-18T00:33:32;2.75;;;2.45;;
21733;SDS011;11029;47.820;10.534;2023-11-18T00:36:18;2.88;;;2.58;;
21733;SDS011;11029;47.820;10.534;2023-11-18T00:39:04;4.57;;;2.38;;
21733;SDS011;11029;47.820;10.534;2023-11-18T00:41:51;2.95;;;2.70;;
21733;SDS011;11029;47.820;10.534;2023-11-18T00:44:36;2.60;;;2.40;;
21733;SDS011;11029;47.820;10.534;2023-11-18T00:47:23;2.53;;;2.33;;
21733;SDS011;11029;47.820;10.534;2023-11-18T00:50:08;2.08;;;1.90;;
21733;SDS011;11029;47.820;10.534;2023-11-18T00:52:54;2.35;;;2.15;;
21733;SDS011;11029;47.820;10.534;2023-11-18T00:55:40;2.28;;;2.08;;
21733;SDS011;11029;47.820;10.534;2023-11-18T00:58:26;2.35;;;2.15;;
21733;SDS011;11029;47.820;10.534;2023-11-18T01:01:12;1.88;;;1.77;;
21733;SDS011;11029;47.820;10.534;2023-11-18T01:03:57;1.77;;;1.67;;
21733;SDS011;11029;47.820;10.534;2023-11-18T01:06:44;1.98;;;1.85;;
21733;SDS011;11029;47.820;10.534;2023-11-18T01:09:29;2.72;;;2.40;;
21733;SDS011;11029;47.820;10.534;2023-11-18T01:12:21;2.28;;;1.83;;
21733;SDS011;11029;47.820;10.534;2023-11-18T01:15:07;2.45;;;2.25;;
21733;SDS011;11029;47.820;10.534;2023-11-18T01:17:55;2.55;;;2.35;;
21733;SDS011;11029;47.820;10.534;2023-11-18T01:20:41;2.88;;;2.50;;
21733;SDS011;11029;47.820;10.534;2023-11-18T01:23:26;2.13;;;1.95;;
21733;SDS011;11029;47.820;10.534;2023-11-18T01:26:12;2.38;;;2.17;;
21733;SDS011;11029;47.820;10.534;2023-11-18T01:28:58;2.40;;;2.20;;
21733;SDS011;11029;47.820;10.534;2023-11-18T01:31:44;3.03;;;2.70;;
21733;SDS011;11029;47.820;10.534;2023-11-18T01:34:36;2.50;;;2.10;;
21733;SDS011;11029;47.820;10.534;2023-11-18T01:37:25;2.30;;;2.10;;
21733;SDS011;11029;47.820;10.534;2023-11-18T01:40:11;2.42;;;2.20;;
21733;SDS011;11029;47.820;10.534;2023-11-18T01:42:57;2.22;;;2.03;;
21733;SDS011;11029;47.820;10.534;2023-11-18T01:45:43;3.13;;;2.45;;
21733;SDS011;11029;47.820;10.534;2023-11-18T01:48:28;2.70;;;2.22;;
21733;SDS011;11029;47.820;10.534;2023-11-18T01:51:15;2.58;;;2.38;;
21733;SDS011;11029;47.820;10.534;2023-11-18T01:54:04;5.60;;;3.63;;
21733;SDS011;11029;47.820;10.534;2023-11-18T01:56:52;6.45;;;4.13;;
21733;SDS011;11029;47.820;10.534;2023-11-18T01:59:38;3.97;;;3.15;;
21733;SDS011;11029;47.820;10.534;2023-11-18T02:02:25;4.72;;;3.65;;
21733;SDS011;11029;47.820;10.534;2023-11-18T02:05:11;2.97;;;2.65;;
21733;SDS011;11029;47.820;10.534;2023-11-18T02:07:58;3.63;;;3.33;;
21733;SDS011;11029;47.820;10.534;2023-11-18T02:10:47;3.40;;;2.83;;
21733;SDS011;11029;47.820;10.534;2023-11-18T02:13:40;4.10;;;3.05;;
21733;SDS011;11029;47.820;10.534;2023-11-18T02:16:32;2.75;;;2.08;;
21733;SDS011;11029;47.820;10.534;2023-11-18T02:19:23;4.15;;;2.85;;
21733;SDS011;11029;47.820;10.534;2023-11-18T02:22:10;3.55;;;3.25;;
21733;SDS011;11029;47.820;10.534;2023-11-18T02:24:56;3.80;;;3.22;;
21733;SDS011;11029;47.820;10.534;2023-11-18T02:27:42;3.70;;;3.03;;
21733;SDS011;11029;47.820;10.534;2023-11-18T02:30:34;3.42;;;2.97;;
21733;SDS011;11029;47.820;10.534;2023-11-18T02:39:28;3.80;;;2.65;;
21733;SDS011;11029;47.820;10.534;2023-11-18T02:42:24;2.55;;;2.35;;
21733;SDS011;11029;47.820;10.534;2023-11-18T02:45:11;3.00;;;2.42;;
21733;SDS011;11029;47.820;10.534;2023-11-18T02:48:03;2.60;;;2.38;;
21733;SDS011;11029;47.820;10.534;2023-11-18T02:50:52;2.63;;;2.40;;
21733;SDS011;11029;47.820;10.534;2023-11-18T02:53:38;2.50;;;2.30;;
21733;SDS011;11029;47.820;10.534;2023-11-18T02:56:25;3.00;;;2.70;;
21733;SDS011;11029;47.820;10.534;2023-11-18T02:59:12;3.25;;;2.60;;
21733;SDS011;11029;47.820;10.534;2023-11-18T03:01:57;2.88;;;2.53;;
21733;SDS011;11029;47.820;10.534;2023-11-18T03:04:46;2.80;;;2.60;;
21733;SDS011;11029;47.820;10.534;2023-11-18T03:07:32;3.70;;;3.30;;
21733;SDS011;11029;47.820;10.534;2023-11-18T03:10:17;3.85;;;3.15;;
21733;SDS011;11029;47.820;10.534;2023-11-18T03:13:07;3.15;;;2.78;;
21733;SDS011;11029;47.820;10.534;2023-11-18T03:15:52;3.22;;;2.88;;
21733;SDS011;11029;47.820;10.534;2023-11-18T03:18:39;3.72;;;3.20;;
21733;SDS011;11029;47.820;10.534;2023-11-18T03:21:26;3.72;;;3.10;;
21733;SDS011;11029;47.820;10.534;2023-11-18T03:24:12;3.35;;;3.05;;
21733;SDS011;11029;47.820;10.534;2023-11-18T03:26:57;3.28;;;2.97;;
21733;SDS011;11029;47.820;10.534;2023-11-18T03:29:43;4.03;;;3.40;;
21733;SDS011;11029;47.820;10.534;2023-11-18T03:32:30;4.57;;;3.33;;
21733;SDS011;11029;47.820;10.534;2023-11-18T03:35:17;4.35;;;3.53;;
21733;SDS011;11029;47.820;10.534;2023-11-18T03:38:03;4.32;;;3.58;;
21733;SDS011;11029;47.820;10.534;2023-11-18T03:40:49;4.05;;;3.65;;
21733;SDS011;11029;47.820;10.534;2023-11-18T03:43:35;3.67;;;3.30;;
21733;SDS011;11029;47.820;10.534;2023-11-18T03:46:23;3.22;;;2.92;;
21733;SDS011;11029;47.820;10.534;2023-11-18T03:49:08;3.92;;;3.50;;
21733;SDS011;11029;47.820;10.534;2023-11-18T03:51:54;4.63;;;3.47;;
21733;SDS011;11029;47.820;10.534;2023-11-18T03:54:40;3.97;;;3.05;;
21733;SDS011;11029;47.820;10.534;2023-11-18T03:57:26;3.97;;;3.25;;
21733;SDS011;11029;47.820;10.534;2023-11-18T04:00:15;3.33;;;3.03;;
21733;SDS011;11029;47.820;10.534;2023-11-18T04:03:01;4.43;;;3.13;;
21733;SDS011;11029;47.820;10.534;2023-11-18T04:05:46;3.50;;;3.20;;
21733;SDS011;11029;47.820;10.534;2023-11-18T04:08:32;3.03;;;2.72;;
21733;SDS011;11029;47.820;10.534;2023-11-18T04:11:19;3.08;;;2.78;;
21733;SDS011;11029;47.820;10.534;2023-11-18T04:14:04;2.75;;;2.55;;
21733;SDS011;11029;47.820;10.534;2023-11-18T04:16:50;2.65;;;2.42;;
21733;SDS011;11029;47.820;10.534;2023-11-18T04:19:36;2.30;;;2.10;;
21733;SDS011;11029;47.820;10.534;2023-11-18T04:22:23;2.35;;;2.15;;
21733;SDS011;11029;47.820;10.534;2023-11-18T04:25:09;2.47;;;2.28;;
21733;SDS011;11029;47.820;10.534;2023-11-18T04:27:56;2.65;;;2.45;;
21733;SDS011;11029;47.820;10.534;2023-11-18T04:30:41;2.50;;;2.30;;
21733;SDS011;11029;47.820;10.534;2023-11-18T04:33:28;2.03;;;1.83;;
21733;SDS011;11029;47.820;10.534;2023-11-18T04:36:14;2.38;;;2.17;;
21733;SDS011;11029;47.820;10.534;2023-11-18T04:39:00;3.47;;;2.15;;
21733;SDS011;11029;47.820;10.534;2023-11-18T04:41:47;2.33;;;1.98;;
21733;SDS011;11029;47.820;10.534;2023-11-18T04:44:33;2.60;;;2.40;;
21733;SDS011;11029;47.820;10.534;2023-11-18T04:47:20;2.47;;;2.28;;
21733;SDS011;11029;47.820;10.534;2023-11-18T04:50:06;2.45;;;2.20;;
21733;SDS011;11029;47.820;10.534;2023-11-18T04:52:53;2.83;;;2.58;;
21733;SDS011;11029;47.820;10.534;2023-11-18T04:55:39;2.40;;;2.20;;
21733;SDS011;11029;47.820;10.534;2023-11-18T04:58:25;2.42;;;2.22;;
21733;SDS011;11029;47.820;10.534;2023-11-18T05:01:10;2.53;;;2.33;;
21733;SDS011;11029;47.820;10.534;2023-11-18T05:03:57;2.67;;;2.10;;
21733;SDS011;11029;47.820;10.534;2023-11-18T05:06:44;2.58;;;2.30;;
21733;SDS011;11029;47.820;10.534;2023-11-18T05:09:30;2.80;;;2.50;;
21733;SDS011;11029;47.820;10.534;2023-11-18T05:12:16;2.97;;;2.70;;
21733;SDS011;11029;47.820;10.534;2023-11-18T05:15:01;3.15;;;2.85;;
21733;SDS011;11029;47.820;10.534;2023-11-18T05:17:52;3.00;;;2.70;;
21733;SDS011;11029;47.820;10.534;2023-11-18T05:20:39;4.28;;;3.22;;
21733;SDS011;11029;47.820;10.534;2023-11-18T05:23:25;3.92;;;3.53;;
21733;SDS011;11029;47.820;10.534;2023-11-18T05:26:11;3.80;;;3.20;;
21733;SDS011;11029;47.820;10.534;2023-11-18T05:28:57;3.00;;;2.70;;
21733;SDS011;11029;47.820;10.534;2023-11-18T05:31:43;3.72;;;3.25;;
21733;SDS011;11029;47.820;10.534;2023-11-18T05:34:28;3.20;;;2.90;;
21733;SDS011;11029;47.820;10.534;2023-11-18T05:37:14;3.05;;;2.75;;
21733;SDS011;11029;47.820;10.534;2023-11-18T05:40:03;3.40;;;3.10;;
21733;SDS011;11029;47.820;10.534;2023-11-18T05:42:54;3.47;;;3.17;;
21733;SDS011;11029;47.820;10.534;2023-11-18T05:45:40;3.28;;;2.97;;
21733;SDS011;11029;47.820;10.534;2023-11-18T05:48:46;3.08;;;2.80;;
21733;SDS011;11029;47.820;10.534;2023-11-18T05:51:33;7.95;;;3.33;;
21733;SDS011;11029;47.820;10.534;2023-11-18T05:54:18;3.50;;;3.20;;
21733;SDS011;11029;47.820;10.534;2023-11-18T05:57:04;3.25;;;2.95;;
21733;SDS011;11029;47.820;10.534;2023-11-18T05:59:49;3.08;;;2.80;;
21733;SDS011;11029;47.820;10.534;2023-11-18T06:02:35;4.70;;;3.15;;
21733;SDS011;11029;47.820;10.534;2023-11-18T06:05:21;3.88;;;3.22;;
21733;SDS011;11029;47.820;10.534;2023-11-18T06:08:11;4.13;;;3.10;;
21733;SDS011;11029;47.820;10.534;2023-11-18T06:10:57;3.38;;;3.08;;
21733;SDS011;11029;47.820;10.534;2023-11-18T06:13:50;3.60;;;3.30;;
21733;SDS011;11029;47.820;10.534;2023-11-18T06:16:37;3.60;;;3.28;;
21733;SDS011;11029;47.820;10.534;2023-11-18T06:19:27;4.40;;;3.13;;
21733;SDS011;11029;47.820;10.534;2023-11-18T06:22:12;10.15;;;9.10;;
21733;SDS011;11029;47.820;10.534;2023-11-18T06:24:58;4.00;;;3.35;;
21733;SDS011;11029;47.820;10.534;2023-11-18T06:27:43;3.50;;;3.20;;
21733;SDS011;11029;47.820;10.534;2023-11-18T06:30:32;3.72;;;3.42;;
21733;SDS011;11029;47.820;10.534;2023-11-18T06:33:18;4.97;;;4.43;;
21733;SDS011;11029;47.820;10.534;2023-11-18T06:36:07;3.35;;;2.80;;
21733;SDS011;11029;47.820;10.534;2023-11-18T06:39:03;3.30;;;2.92;;
21733;SDS011;11029;47.820;10.534;2023-11-18T06:41:52;4.53;;;3.13;;
21733;SDS011;11029;47.820;10.534;2023-11-18T06:44:38;7.18;;;4.53;;
21733;SDS011;11029;47.820;10.534;2023-11-18T06:47:23;3.83;;;3.30;;
21733;SDS011;11029;47.820;10.534;2023-11-18T06:50:09;4.07;;;3.20;;
21733;SDS011;11029;47.820;10.534;2023-11-18T06:52:59;3.05;;;2.78;;
21733;SDS011;11029;47.820;10.534;2023-11-18T06:55:45;3.00;;;2.70;;
21733;SDS011;11029;47.820;10.534;2023-11-18T06:58:31;3.15;;;2.78;;
21733;SDS011;11029;47.820;10.534;2023-11-18T07:01:17;3.13;;;2.53;;
21733;SDS011;11029;47.820;10.534;2023-11-18T07:04:04;3.30;;;2.85;;
21733;SDS011;11029;47.820;10.534;2023-11-18T07:06:53;2.92;;;2.72;;
21733;SDS011;11029;47.820;10.534;2023-11-18T07:09:39;5.25;;;3.50;;
21733;SDS011;11029;47.820;10.534;2023-11-18T07:12:24;10.07;;;6.00;;
21733;SDS011;11029;47.820;10.534;2023-11-18T07:15:10;4.72;;;3.75;;
21733;SDS011;11029;47.820;10.534;2023-11-18T07:17:56;3.35;;;3.05;;
21733;SDS011;11029;47.820;10.534;2023-11-18T07:20:42;3.35;;;2.90;;
21733;SDS011;11029;47.820;10.534;2023-11-18T07:23:27;3.47;;;2.53;;
21733;SDS011;11029;47.820;10.534;2023-11-18T07:26:12;3.17;;;2.88;;
21733;SDS011;11029;47.820;10.534;2023-11-18T07:29:00;3.92;;;3.05;;
21733;SDS011;11029;47.820;10.534;2023-11-18T07:31:46;3.15;;;2.72;;
21733;SDS011;11029;47.820;10.534;2023-11-18T07:34:32;3.33;;;2.33;;
21733;SDS011;11029;47.820;10.534;2023-11-18T07:37:18;2.80;;;2.58;;
21733;SDS011;11029;47.820;10.534;2023-11-18T07:40:04;2.28;;;2.08;;
21733;SDS011;11029;47.820;10.534;2023-11-18T07:42:50;4.63;;;2.45;;
21733;SDS011;11029;47.820;10.534;2023-11-18T07:45:36;3.00;;;2.70;;
21733;SDS011;11029;47.820;10.534;2023-11-18T07:48:23;6.00;;;2.50;;
21733;SDS011;11029;47.820;10.534;2023-11-18T07:51:08;2.50;;;2.30;;
21733;SDS011;11029;47.820;10.534;2023-11-18T07:53:55;2.30;;;2.10;;
21733;SDS011;11029;47.820;10.534;2023-11-18T07:56:41;3.60;;;3.22;;
21733;SDS011;11029;47.820;10.534;2023-11-18T07:59:27;2.88;;;2.67;;
21733;SDS011;11029;47.820;10.534;2023-11-18T08:02:14;2.10;;;1.80;;
21733;SDS011;11029;47.820;10.534;2023-11-18T08:05:00;2.60;;;2.40;;
21733;SDS011;11029;47.820;10.534;2023-11-18T08:07:47;2.65;;;2.45;;
21733;SDS011;11029;47.820;10.534;2023-11-18T08:10:34;2.58;;;2.35;;
21733;SDS011;11029;47.820;10.534;2023-11-18T08:13:23;1.75;;;1.30;;
21733;SDS011;11029;47.820;10.534;2023-11-18T08:16:09;2.85;;;2.40;;
21733;SDS011;11029;47.820;10.534;2023-11-18T08:18:56;1.40;;;1.30;;
21733;SDS011;11029;47.820;10.534;2023-11-18T08:21:42;3.35;;;1.75;;
21733;SDS011;11029;47.820;10.534;2023-11-18T08:24:27;2.53;;;2.33;;
21733;SDS011;11029;47.820;10.534;2023-11-18T08:27:14;1.23;;;1.15;;
21733;SDS011;11029;47.820;10.534;2023-11-18T08:29:59;1.48;;;1.38;;
21733;SDS011;11029;47.820;10.534;2023-11-18T08:32:45;0.90;;;0.90;;
21733;SDS011;11029;47.820;10.534;2023-11-18T08:35:31;1.60;;;1.50;;
21733;SDS011;11029;47.820;10.534;2023-11-18T08:38:17;1.85;;;1.73;;
21733;SDS011;11029;47.820;10.534;2023-11-18T08:41:03;1.15;;;1.05;;
21733;SDS011;11029;47.820;10.534;2023-11-18T08:43:50;1.17;;;0.90;;
21733;SDS011;11029;47.820;10.534;2023-11-18T08:46:36;1.27;;;1.17;;
21733;SDS011;11029;47.820;10.534;2023-11-18T08:49:22;1.50;;;0.93;;
21733;SDS011;11029;47.820;10.534;2023-11-18T08:52:07;1.30;;;0.88;;
21733;SDS011;11029;47.820;10.534;2023-11-18T08:54:57;1.20;;;0.88;;
21733;SDS011;11029;47.820;10.534;2023-11-18T08:57:58;0.90;;;0.90;;
21733;SDS011;11029;47.820;10.534;2023-11-18T09:00:48;1.10;;;1.00;;
21733;SDS011;11029;47.820;10.534;2023-11-18T09:03:49;2.70;;;2.50;;
21733;SDS011;11029;47.820;10.534;2023-11-18T09:06:37;1.50;;;1.30;;
21733;SDS011;11029;47.820;10.534;2023-11-18T09:09:24;1.15;;;1.05;;
21733;SDS011;11029;47.820;10.534;2023-11-18T09:12:13;1.98;;;1.77;;
21733;SDS011;11029;47.820;10.534;2023-11-18T09:14:59;1.02;;;0.93;;
21733;SDS011;11029;47.820;10.534;2023-11-18T09:17:49;1.17;;;1.10;;
21733;SDS011;11029;47.820;10.534;2023-11-18T09:20:35;3.10;;;1.30;;
21733;SDS011;11029;47.820;10.534;2023-11-18T09:23:21;1.30;;;1.20;;
21733;SDS011;11029;47.820;10.534;2023-11-18T09:26:10;2.78;;;1.58;;
21733;SDS011;11029;47.820;10.534;2023-11-18T09:28:56;2.30;;;2.10;;
21733;SDS011;11029;47.820;10.534;2023-11-18T09:31:49;2.90;;;2.65;;
21733;SDS011;11029;47.820;10.534;2023-11-18T09:34:37;1.50;;;1.40;;
21733;SDS011;11029;47.820;10.534;2023-11-18T09:37:25;2.33;;;1.90;;
21733;SDS011;11029;47.820;10.534;2023-11-18T09:40:15;1.55;;;1.45;;
21733;SDS011;11029;47.820;10.534;2023-11-18T09:43:02;1.60;;;1.50;;
21733;SDS011;11029;47.820;10.534;2023-11-18T09:45:55;1.00;;;1.00;;
21733;SDS011;11029;47.820;10.534;2023-11-18T09:48:43;2.95;;;0.77;;
21733;SDS011;11029;47.820;10.534;2023-11-18T09:51:38;0.85;;;0.85;;
21733;SDS011;11029;47.820;10.534;2023-11-18T09:57:27;1.00;;;0.90;;
21733;SDS011;11029;47.820;10.534;2023-11-18T10:00:29;1.00;;;0.85;;
21733;SDS011;11029;47.820;10.534;2023-11-18T10:03:19;1.17;;;0.80;;
21733;SDS011;11029;47.820;10.534;2023-11-18T10:06:07;0.75;;;0.70;;
21733;SDS011;11029;47.820;10.534;2023-11-18T10:08:54;1.35;;;0.85;;
21733;SDS011;11029;47.820;10.534;2023-11-18T10:11:41;1.80;;;1.70;;
21733;SDS011;11029;47.820;10.534;2023-11-18T10:14:33;1.88;;;0.80;;
21733;SDS011;11029;47.820;10.534;2023-11-18T10:17:20;0.77;;;0.77;;
21733;SDS011;11029;47.820;10.534;2023-11-18T10:20:09;0.88;;;0.88;;
21733;SDS011;11029;47.820;10.534;2023-11-18T10:23:08;1.08;;;0.95;;
21733;SDS011;11029;47.820;10.534;2023-11-18T10:25:58;0.90;;;0.70;;
21733;SDS011;11029;47.820;10.534;2023-11-18T10:28:45;0.75;;;0.73;;
21733;SDS011;11029;47.820;10.534;2023-11-18T10:31:33;1.10;;;1.00;;
21733;SDS011;11029;47.820;10.534;2023-11-18T10:34:22;0.80;;;0.80;;
21733;SDS011;11029;47.820;10.534;2023-11-18T10:37:09;2.53;;;2.10;;
21733;SDS011;11029;47.820;10.534;2023-11-18T10:39:56;2.63;;;2.25;;
21733;SDS011;11029;47.820;10.534;2023-11-18T10:42:42;0.90;;;0.75;;
21733;SDS011;11029;47.820;10.534;2023-11-18T10:45:33;1.40;;;0.70;;
21733;SDS011;11029;47.820;10.534;2023-11-18T10:48:19;0.75;;;0.75;;
21733;SDS011;11029;47.820;10.534;2023-11-18T10:51:05;1.85;;;0.90;;
21733;SDS011;11029;47.820;10.534;2023-11-18T10:53:53;1.13;;;0.80;;
21733;SDS011;11029;47.820;10.534;2023-11-18T10:56:47;1.27;;;1.10;;
21733;SDS011;11029;47.820;10.534;2023-11-18T11:00:04;1.20;;;0.85;;
21733;SDS011;11029;47.820;10.534;2023-11-18T11:03:04;1.40;;;0.90;;
21733;SDS011;11029;47.820;10.534;2023-11-18T11:05:49;1.23;;;1.05;;
21733;SDS011;11029;47.820;10.534;2023-11-18T11:08:37;0.80;;;0.80;;
21733;SDS011;11029;47.820;10.534;2023-11-18T11:11:28;1.30;;;1.00;;
21733;SDS011;11029;47.820;10.534;2023-11-18T11:14:24;1.38;;;0.95;;
21733;SDS011;11029;47.820;10.534;2023-11-18T11:17:20;1.08;;;0.68;;
21733;SDS011;11029;47.820;10.534;2023-11-18T11:20:18;0.70;;;0.70;;
21733;SDS011;11029;47.820;10.534;2023-11-18T11:23:18;0.90;;;0.75;;
21733;SDS011;11029;47.820;10.534;2023-11-18T11:29:33;1.08;;;0.98;;
21733;SDS011;11029;47.820;10.534;2023-11-18T11:32:31;1.10;;;1.08;;
21733;SDS011;11029;47.820;10.534;2023-11-18T11:35:25;4.35;;;1.13;;
21733;SDS011;11029;47.820;10.534;2023-11-18T11:38:18;0.90;;;0.90;;
21733;SDS011;11029;47.820;10.534;2023-11-18T11:41:04;0.60;;;0.60;;
21733;SDS011;11029;47.820;10.534;2023-11-18T11:43:52;1.83;;;0.80;;
21733;SDS011;11029;47.820;10.534;2023-11-18T11:46:43;1.95;;;0.90;;
21733;SDS011;11029;47.820;10.534;2023-11-18T11:49:35;1.13;;;0.98;;
21733;SDS011;11029;47.820;10.534;2023-11-18T11:52:32;1.40;;;1.10;;
21733;SDS011;11029;47.820;10.534;2023-11-18T11:58:30;1.15;;;0.90;;
21733;SDS011;11029;47.820;10.534;2023-11-18T12:01:36;1.20;;;1.10;;
21733;SDS011;11029;47.820;10.534;2023-11-18T12:04:23;2.50;;;1.25;;
21733;SDS011;11029;47.820;10.534;2023-11-18T12:07:14;3.03;;;2.13;;
21733;SDS011;11029;47.820;10.534;2023-11-18T12:10:07;1.23;;;1.13;;
21733;SDS011;11029;47.820;10.534;2023-11-18T12:13:08;0.70;;;0.70;;
21733;SDS011;11029;47.820;10.534;2023-11-18T12:16:02;2.38;;;1.05;;
21733;SDS011;11029;47.820;10.534;2023-11-18T12:23:16;0.77;;;0.70;;
21733;SDS011;11029;47.820;10.534;2023-11-18T12:25:58;1.98;;;0.80;;
21733;SDS011;11029;47.820;10.534;2023-11-18T12:28:44;1.77;;;0.70;;
21733;SDS011;11029;47.820;10.534;2023-11-18T12:31:40;1.80;;;0.70;;
21733;SDS011;11029;47.820;10.534;2023-11-18T12:34:49;0.80;;;0.80;;
21733;SDS011;11029;47.820;10.534;2023-11-18T12:37:47;0.77;;;0.70;;
21733;SDS011;11029;47.820;10.534;2023-11-18T12:40:52;1.63;;;0.93;;
21733;SDS011;11029;47.820;10.534;2023-11-18T12:50:07;1.27;;;1.10;;
21733;SDS011;11029;47.820;10.534;2023-11-18T12:53:02;3.50;;;1.70;;
21733;SDS011;11029;47.820;10.534;2023-11-18T12:55:48;1.67;;;1.20;;
21733;SDS011;11029;47.820;10.534;2023-11-18T12:58:34;1.98;;;0.93;;
21733;SDS011;11029;47.820;10.534;2023-11-18T13:01:19;0.98;;;0.80;;
21733;SDS011;11029;47.820;10.534;2023-11-18T13:04:05;1.42;;;1.20;;
21733;SDS011;11029;47.820;10.534;2023-11-18T13:06:51;1.38;;;0.90;;
21733;SDS011;11029;47.820;10.534;2023-11-18T13:09:38;2.70;;;1.88;;
21733;SDS011;11029;47.820;10.534;2023-11-18T13:12:25;3.67;;;2.00;;
21733;SDS011;11029;47.820;10.534;2023-11-18T13:15:12;0.73;;;0.70;;
21733;SDS011;11029;47.820;10.534;2023-11-18T13:18:02;0.90;;;0.90;;
21733;SDS011;11029;47.820;10.534;2023-11-18T13:20:55;2.40;;;1.05;;
21733;SDS011;11029;47.820;10.534;2023-11-18T13:23:46;1.08;;;1.00;;
21733;SDS011;11029;47.820;10.534;2023-11-18T13:26:38;1.30;;;1.20;;
21733;SDS011;11029;47.820;10.534;2023-11-18T13:29:23;1.10;;;1.00;;
21733;SDS011;11029;47.820;10.534;2023-11-18T13:32:10;1.35;;;0.90;;
21733;SDS011;11029;47.820;10.534;2023-11-18T13:34:56;4.35;;;2.90;;
21733;SDS011;11029;47.820;10.534;2023-11-18T13:37:42;10.32;;;5.45;;
21733;SDS011;11029;47.820;10.534;2023-11-18T13:40:41;10.18;;;6.30;;
21733;SDS011;11029;47.820;10.534;2023-11-18T13:43:28;3.75;;;2.60;;
21733;SDS011;11029;47.820;10.534;2023-11-18T13:46:27;4.40;;;3.20;;
21733;SDS011;11029;47.820;10.534;2023-11-18T13:49:13;5.30;;;4.53;;
21733;SDS011;11029;47.820;10.534;2023-11-18T13:51:59;2.80;;;1.80;;
21733;SDS011;11029;47.820;10.534;2023-11-18T13:54:46;3.97;;;3.42;;
21733;SDS011;11029;47.820;10.534;2023-11-18T13:57:33;3.03;;;1.90;;
21733;SDS011;11029;47.820;10.534;2023-11-18T14:00:21;1.65;;;1.10;;
21733;SDS011;11029;47.820;10.534;2023-11-18T14:03:08;1.73;;;1.50;;
21733;SDS011;11029;47.820;10.534;2023-11-18T14:06:00;3.03;;;1.30;;
21733;SDS011;11029;47.820;10.534;2023-11-18T14:08:48;2.45;;;1.73;;
21733;SDS011;11029;47.820;10.534;2023-11-18T14:11:35;2.13;;;1.92;;
21733;SDS011;11029;47.820;10.534;2023-11-18T14:14:21;3.10;;;2.40;;
21733;SDS011;11029;47.820;10.534;2023-11-18T14:17:10;12.90;;;3.53;;
21733;SDS011;11029;47.820;10.534;2023-11-18T14:19:56;0.98;;;0.88;;
21733;SDS011;11029;47.820;10.534;2023-11-18T14:22:43;0.60;;;0.60;;
21733;SDS011;11029;47.820;10.534;2023-11-18T14:25:29;2.05;;;0.80;;
21733;SDS011;11029;47.820;10.534;2023-11-18T14:28:18;6.35;;;2.90;;
21733;SDS011;11029;47.820;10.534;2023-11-18T14:31:07;0.70;;;0.68;;
21733;SDS011;11029;47.820;10.534;2023-11-18T14:33:54;1.60;;;0.77;;
21733;SDS011;11029;47.820;10.534;2023-11-18T14:36:43;2.08;;;0.90;;
21733;SDS011;11029;47.820;10.534;2023-11-18T14:39:29;5.97;;;5.28;;
21733;SDS011;11029;47.820;10.534;2023-11-18T14:42:15;4.50;;;4.10;;
21733;SDS011;11029;47.820;10.534;2023-11-18T14:45:00;2.42;;;2.22;;
21733;SDS011;11029;47.820;10.534;2023-11-18T14:47:46;1.45;;;1.35;;
21733;SDS011;11029;47.820;10.534;2023-11-18T14:50:33;2.90;;;2.10;;
21733;SDS011;11029;47.820;10.534;2023-11-18T14:53:20;2.42;;;1.50;;
21733;SDS011;11029;47.820;10.534;2023-11-18T14:56:05;9.63;;;5.47;;
21733;SDS011;11029;47.820;10.534;2023-11-18T14:58:51;10.63;;;5.05;;
21733;SDS011;11029;47.820;10.534;2023-11-18T15:01:37;3.72;;;1.83;;
21733;SDS011;11029;47.820;10.534;2023-11-18T15:04:22;2.58;;;1.10;;
21733;SDS011;11029;47.820;10.534;2023-11-18T15:07:08;1.42;;;1.23;;
21733;SDS011;11029;47.820;10.534;2023-11-18T15:09:54;4.35;;;2.97;;
21733;SDS011;11029;47.820;10.534;2023-11-18T15:12:39;3.05;;;1.38;;
21733;SDS011;11029;47.820;10.534;2023-11-18T15:15:26;2.08;;;1.17;;
21733;SDS011;11029;47.820;10.534;2023-11-18T15:18:16;1.30;;;0.95;;
21733;SDS011;11029;47.820;10.534;2023-11-18T15:21:03;1.00;;;1.00;;
21733;SDS011;11029;47.820;10.534;2023-11-18T15:23:48;2.33;;;1.35;;
21733;SDS011;11029;47.820;10.534;2023-11-18T15:26:35;3.75;;;1.50;;
21733;SDS011;11029;47.820;10.534;2023-11-18T15:29:21;4.90;;;4.50;;
21733;SDS011;11029;47.820;10.534;2023-11-18T15:32:13;9.40;;;7.88;;
21733;SDS011;11029;47.820;10.534;2023-11-18T15:34:58;6.85;;;6.13;;
21733;SDS011;11029;47.820;10.534;2023-11-18T15:37:44;3.28;;;2.72;;
21733;SDS011;11029;47.820;10.534;2023-11-18T15:40:32;3.03;;;2.38;;
21733;SDS011;11029;47.820;10.534;2023-11-18T15:43:17;7.43;;;3.33;;
21733;SDS011;11029;47.820;10.534;2023-11-18T15:46:03;1.80;;;1.10;;
21733;SDS011;11029;47.820;10.534;2023-11-18T15:48:51;1.80;;;1.40;;
21733;SDS011;11029;47.820;10.534;2023-11-18T15:51:36;2.45;;;1.75;;
21733;SDS011;11029;47.820;10.534;2023-11-18T15:54:25;1.95;;;1.77;;
21733;SDS011;11029;47.820;10.534;2023-11-18T15:57:10;3.03;;;1.60;;
21733;SDS011;11029;47.820;10.534;2023-11-18T15:59:56;2.05;;;1.50;;
21733;SDS011;11029;47.820;10.534;2023-11-18T16:02:42;2.60;;;1.40;;
21733;SDS011;11029;47.820;10.534;2023-11-18T16:05:30;1.83;;;1.40;;
21733;SDS011;11029;47.820;10.534;2023-11-18T16:08:20;1.40;;;1.30;;
21733;SDS011;11029;47.820;10.534;2023-11-18T16:11:06;2.20;;;1.40;;
21733;SDS011;11029;47.820;10.534;2023-11-18T16:13:51;4.45;;;2.63;;
21733;SDS011;11029;47.820;10.534;2023-11-18T16:16:37;7.55;;;4.57;;
21733;SDS011;11029;47.820;10.534;2023-11-18T16:19:23;9.93;;;6.28;;
21733;SDS011;11029;47.820;10.534;2023-11-18T16:22:08;10.88;;;4.78;;
21733;SDS011;11029;47.820;10.534;2023-11-18T16:24:54;15.73;;;9.98;;
21733;SDS011;11029;47.820;10.534;2023-11-18T16:27:39;5.60;;;3.45;;
21733;SDS011;11029;47.820;10.534;2023-11-18T16:30:25;6.82;;;4.63;;
21733;SDS011;11029;47.820;10.534;2023-11-18T16:33:14;2.15;;;1.95;;
21733;SDS011;11029;47.820;10.534;2023-11-18T16:36:00;2.67;;;1.40;;
21733;SDS011;11029;47.820;10.534;2023-11-18T16:38:47;4.00;;;3.58;;
21733;SDS011;11029;47.820;10.534;2023-11-18T16:41:33;3.15;;;2.85;;
21733;SDS011;11029;47.820;10.534;2023-11-18T16:44:29;1.60;;;1.50;;
21733;SDS011;11029;47.820;10.534;2023-11-18T16:47:15;3.53;;;1.63;;
21733;SDS011;11029;47.820;10.534;2023-11-18T16:50:00;1.80;;;1.70;;
21733;SDS011;11029;47.820;10.534;2023-11-18T16:52:48;2.17;;;1.98;;
21733;SDS011;11029;47.820;10.534;2023-11-18T16:55:35;1.92;;;1.60;;
21733;SDS011;11029;47.820;10.534;2023-11-18T16:58:20;2.45;;;1.27;;
21733;SDS011;11029;47.820;10.534;2023-11-18T17:01:06;2.17;;;1.00;;